createdAt,value
2023-09-04T00:00:03.051Z,5.10
2023-09-04T00:00:35.008Z,5.27
2023-09-04T00:01:07.043Z,4.90
2023-09-04T00:01:40.000Z,4.93
2023-09-04T00:02:11.946Z,4.90
2023-09-04T00:02:43.957Z,4.67
2023-09-04T00:03:16.319Z,4.93
2023-09-04T00:03:48.310Z,4.73
2023-09-04T00:04:20.243Z,4.87
2023-09-04T00:04:53.269Z,5.13
2023-09-04T00:05:25.321Z,4.83
2023-09-04T00:05:57.243Z,4.83
2023-09-04T00:06:29.152Z,5.13
2023-09-04T00:07:01.132Z,4.90
2023-09-04T00:07:33.045Z,4.93
2023-09-04T00:08:05.295Z,5.17
2023-09-04T00:08:37.248Z,4.97
2023-09-04T00:09:09.190Z,5.00
2023-09-04T00:09:41.400Z,4.90
2023-09-04T00:10:13.668Z,5.40
2023-09-04T00:10:45.698Z,5.43
2023-09-04T00:11:17.628Z,5.37
2023-09-04T00:11:49.535Z,5.53
2023-09-04T00:12:21.500Z,5.80
2023-09-04T00:12:53.726Z,5.93
2023-09-04T00:13:25.637Z,6.27
2023-09-04T00:13:57.615Z,5.90
2023-09-04T00:14:29.524Z,5.40
2023-09-04T00:15:01.427Z,5.60
2023-09-04T00:15:33.359Z,5.43
2023-09-04T00:16:05.486Z,5.50
2023-09-04T00:16:38.100Z,4.83
2023-09-04T00:17:12.228Z,5.33
2023-09-04T00:17:44.216Z,5.50
2023-09-04T00:18:16.161Z,5.23
2023-09-04T00:18:48.152Z,5.37
2023-09-04T00:19:20.157Z,6.30
2023-09-04T00:19:52.147Z,5.33
2023-09-04T00:20:25.796Z,5.57
2023-09-04T00:20:57.717Z,5.23
2023-09-04T00:21:29.624Z,5.67
2023-09-04T00:22:01.544Z,5.40
2023-09-04T00:22:33.466Z,5.20
2023-09-04T00:23:05.378Z,4.93
2023-09-04T00:23:37.400Z,5.13
2023-09-04T00:24:09.357Z,5.17
2023-09-04T00:24:41.278Z,5.37
2023-09-04T00:25:13.226Z,6.20
2023-09-04T00:25:45.465Z,5.57
2023-09-04T00:26:17.412Z,5.37
2023-09-04T00:26:49.344Z,5.30
2023-09-04T00:27:21.278Z,5.37
2023-09-04T00:27:54.525Z,5.33
2023-09-04T00:28:27.206Z,5.73
2023-09-04T00:28:59.210Z,5.67
2023-09-04T00:29:31.121Z,5.23
2023-09-04T00:30:03.051Z,5.70
2023-09-04T00:30:34.977Z,5.50
2023-09-04T00:31:06.944Z,5.13
2023-09-04T00:31:38.885Z,5.17
2023-09-04T00:32:10.810Z,4.83
2023-09-04T00:32:42.769Z,5.77
2023-09-04T00:33:14.709Z,5.70
2023-09-04T00:33:46.635Z,5.73
2023-09-04T00:34:18.635Z,5.53
2023-09-04T00:34:50.554Z,5.63
2023-09-04T00:35:23.312Z,5.60
2023-09-04T00:35:55.219Z,5.87
2023-09-04T00:36:27.107Z,5.50
2023-09-04T00:36:59.657Z,5.57
2023-09-04T00:37:31.666Z,5.33
2023-09-04T00:38:03.641Z,5.57
2023-09-04T00:38:35.608Z,6.07
2023-09-04T00:39:07.814Z,6.27
2023-09-04T00:39:39.808Z,5.77
2023-09-04T00:40:12.007Z,5.80
2023-09-04T00:40:43.943Z,6.13
2023-09-04T00:41:17.144Z,5.87
2023-09-04T00:41:49.100Z,5.03
2023-09-04T00:42:21.016Z,5.00
2023-09-04T00:42:52.925Z,5.47
2023-09-04T00:43:24.841Z,5.60
2023-09-04T00:43:56.765Z,5.30
2023-09-04T00:44:28.806Z,5.23
2023-09-04T00:45:02.060Z,5.50
2023-09-04T00:45:36.037Z,5.27
2023-09-04T00:46:08.554Z,5.33
2023-09-04T00:46:43.413Z,5.47
2023-09-04T00:47:15.705Z,5.13
2023-09-04T00:47:48.054Z,5.37
2023-09-04T00:48:21.058Z,5.23
2023-09-04T00:48:53.510Z,5.17
2023-09-04T00:49:25.606Z,5.03
2023-09-04T00:49:58.477Z,5.33
2023-09-04T00:50:31.561Z,5.27
2023-09-04T00:51:03.840Z,5.17
2023-09-04T00:51:35.933Z,5.57
2023-09-04T00:52:08.074Z,5.63
2023-09-04T00:52:40.419Z,6.10
2023-09-04T00:53:12.669Z,6.20
2023-09-04T00:53:44.598Z,6.40
2023-09-04T00:54:17.746Z,5.67
2023-09-04T00:54:49.837Z,5.80
2023-09-04T00:55:21.998Z,6.43
2023-09-04T00:55:54.090Z,6.07
2023-09-04T00:56:26.331Z,6.03
2023-09-04T00:56:58.421Z,6.30
2023-09-04T00:57:30.358Z,5.33
2023-09-04T00:58:02.321Z,5.70
2023-09-04T00:58:37.866Z,5.50
2023-09-04T00:59:09.885Z,6.00
2023-09-04T00:59:41.895Z,6.40
2023-09-04T01:00:20.811Z,6.37
2023-09-04T01:00:52.873Z,6.20
2023-09-04T01:01:25.543Z,6.10
2023-09-04T01:02:00.744Z,5.80
2023-09-04T01:02:34.278Z,5.47
2023-09-04T01:03:06.392Z,5.87
2023-09-04T01:03:38.431Z,6.10
2023-09-04T01:04:10.400Z,6.10
2023-09-04T01:04:42.468Z,5.83
2023-09-04T01:05:14.383Z,6.03
2023-09-04T01:05:46.616Z,6.23
2023-09-04T01:06:18.527Z,5.97
2023-09-04T01:06:50.471Z,6.10
2023-09-04T01:07:22.413Z,5.93
2023-09-04T01:07:54.569Z,5.90
2023-09-04T01:08:26.916Z,6.43
2023-09-04T01:08:58.902Z,6.43
2023-09-04T01:09:31.187Z,6.03
2023-09-04T01:10:05.053Z,5.83
2023-09-04T01:11:05.680Z,6.33
2023-09-04T01:11:43.969Z,6.33
2023-09-04T01:12:19.001Z,5.90
2023-09-04T01:12:59.629Z,6.07
2023-09-04T01:13:39.802Z,5.77
2023-09-04T01:14:15.085Z,5.87
2023-09-04T01:14:48.527Z,6.00
2023-09-04T01:15:20.780Z,6.03
2023-09-04T01:15:53.205Z,5.43
2023-09-04T01:16:25.499Z,5.53
2023-09-04T01:16:58.359Z,5.90
2023-09-04T01:17:31.427Z,5.90
2023-09-04T01:18:03.928Z,5.90
2023-09-04T01:18:36.497Z,6.47
2023-09-04T01:19:11.769Z,6.17
2023-09-04T01:19:44.088Z,6.33
2023-09-04T01:20:22.728Z,6.20
2023-09-04T01:21:01.450Z,5.63
2023-09-04T01:21:39.287Z,5.83
2023-09-04T01:22:11.484Z,5.67
2023-09-04T01:22:43.484Z,5.97
2023-09-04T01:23:15.407Z,5.97
2023-09-04T01:23:47.317Z,6.33
2023-09-04T01:24:19.275Z,6.17
2023-09-04T01:24:51.791Z,6.00
2023-09-04T01:25:31.711Z,6.03
2023-09-04T01:26:26.759Z,5.70
2023-09-04T01:27:07.406Z,5.57
2023-09-04T01:27:42.644Z,6.47
2023-09-04T01:28:52.200Z,7.13
2023-09-04T01:30:01.960Z,5.97
2023-09-04T01:30:41.531Z,6.30
2023-09-04T01:31:24.001Z,5.93
2023-09-04T01:32:04.346Z,6.10
2023-09-04T01:32:41.210Z,6.13
2023-09-04T01:33:17.702Z,6.30
2023-09-04T01:33:58.324Z,5.83
2023-09-04T01:34:32.386Z,6.50
2023-09-04T01:35:11.368Z,6.30
2023-09-04T01:35:45.608Z,6.17
2023-09-04T01:36:18.729Z,6.47
2023-09-04T01:36:53.089Z,6.33
2023-09-04T01:37:25.939Z,6.33
2023-09-04T01:37:57.875Z,6.27
2023-09-04T01:38:30.030Z,6.57
2023-09-04T01:39:02.179Z,6.87
2023-09-04T01:39:34.690Z,6.17
2023-09-04T01:40:08.780Z,6.27
2023-09-04T01:40:40.773Z,6.33
2023-09-04T01:41:12.716Z,6.13
2023-09-04T01:41:44.692Z,5.77
2023-09-04T01:42:16.617Z,5.83
2023-09-04T01:42:48.522Z,6.40
2023-09-04T01:43:20.430Z,6.30
2023-09-04T01:43:52.366Z,6.07
2023-09-04T01:44:24.301Z,6.60
2023-09-04T01:44:56.213Z,6.13
2023-09-04T01:45:28.158Z,5.83
2023-09-04T01:46:00.331Z,6.00
2023-09-04T01:46:32.433Z,6.30
2023-09-04T01:47:04.630Z,6.00
2023-09-04T01:47:36.570Z,5.93
2023-09-04T01:48:08.836Z,6.50
2023-09-04T01:48:40.753Z,6.13
2023-09-04T01:49:12.703Z,5.77
2023-09-04T01:49:44.770Z,5.80
2023-09-04T01:50:16.730Z,6.17
2023-09-04T01:50:48.697Z,6.00
2023-09-04T01:51:20.609Z,6.13
2023-09-04T01:51:55.202Z,5.60
2023-09-04T01:52:27.111Z,5.93
2023-09-04T01:52:59.028Z,6.33
2023-09-04T01:53:30.940Z,6.43
2023-09-04T01:54:02.895Z,5.83
2023-09-04T01:54:34.798Z,5.70
2023-09-04T01:55:07.006Z,5.77
2023-09-04T01:55:38.923Z,5.83
2023-09-04T01:56:10.850Z,6.37
2023-09-04T01:56:42.754Z,5.77
2023-09-04T01:57:14.657Z,5.97
2023-09-04T01:57:46.586Z,6.30
2023-09-04T01:58:18.610Z,5.80
2023-09-04T01:58:50.518Z,5.47
2023-09-04T01:59:22.581Z,6.20
2023-09-04T01:59:54.488Z,5.90
2023-09-04T02:00:27.187Z,6.13
2023-09-04T02:00:59.094Z,5.80
2023-09-04T02:01:31.428Z,5.33
2023-09-04T02:02:03.374Z,5.47
2023-09-04T02:02:35.362Z,5.70
2023-09-04T02:03:07.417Z,5.70
2023-09-04T02:03:39.944Z,6.23
2023-09-04T02:04:11.984Z,6.73
2023-09-04T02:04:43.940Z,7.07
2023-09-04T02:05:15.882Z,6.37
2023-09-04T02:05:47.807Z,6.07
2023-09-04T02:06:19.719Z,6.47
2023-09-04T02:06:51.645Z,6.27
2023-09-04T02:07:23.546Z,6.47
2023-09-04T02:07:55.455Z,6.47
2023-09-04T02:08:27.367Z,6.03
2023-09-04T02:08:59.438Z,6.10
2023-09-04T02:09:31.391Z,6.57
2023-09-04T02:10:03.817Z,6.83
2023-09-04T02:10:36.838Z,6.43
2023-09-04T02:11:08.750Z,6.17
2023-09-04T02:11:40.768Z,6.07
2023-09-04T02:12:12.698Z,6.10
2023-09-04T02:12:44.606Z,6.00
2023-09-04T02:13:16.831Z,5.97
2023-09-04T02:13:49.114Z,5.97
2023-09-04T02:14:21.299Z,5.73
2023-09-04T02:14:53.590Z,5.40
2023-09-04T02:15:25.604Z,5.37
2023-09-04T02:15:57.570Z,5.80
2023-09-04T02:16:30.864Z,6.00
2023-09-04T02:17:02.935Z,6.00
2023-09-04T02:17:34.908Z,6.13
2023-09-04T02:18:07.156Z,5.67
2023-09-04T02:18:39.578Z,5.73
2023-09-04T02:19:11.486Z,6.07
2023-09-04T02:19:43.408Z,5.97
2023-09-04T02:20:15.348Z,5.97
2023-09-04T02:20:48.250Z,5.77
2023-09-04T02:21:20.156Z,5.83
2023-09-04T02:21:52.082Z,5.50
2023-09-04T02:22:24.076Z,6.47
2023-09-04T02:22:56.141Z,6.77
2023-09-04T02:23:28.037Z,6.50
2023-09-04T02:24:00.196Z,6.27
2023-09-04T02:24:33.547Z,5.97
2023-09-04T02:25:05.739Z,5.73
2023-09-04T02:25:37.650Z,5.80
2023-09-04T02:26:09.677Z,6.23
2023-09-04T02:26:41.569Z,5.90
2023-09-04T02:27:13.468Z,5.60
2023-09-04T02:27:45.377Z,6.03
2023-09-04T02:28:18.012Z,6.47
2023-09-04T02:28:49.903Z,5.97
2023-09-04T02:29:21.805Z,6.50
2023-09-04T02:29:53.734Z,6.40
2023-09-04T02:30:25.652Z,6.10
2023-09-04T02:30:57.696Z,5.97
2023-09-04T02:31:29.635Z,6.37
2023-09-04T02:32:01.571Z,6.20
2023-09-04T02:32:33.530Z,5.90
2023-09-04T02:33:05.494Z,6.17
2023-09-04T02:33:37.501Z,6.03
2023-09-04T02:34:09.403Z,6.13
2023-09-04T02:34:41.597Z,6.63
2023-09-04T02:35:14.017Z,6.13
2023-09-04T02:35:45.911Z,6.63
2023-09-04T02:36:17.839Z,6.53
2023-09-04T02:36:49.747Z,6.23
2023-09-04T02:37:21.660Z,5.83
2023-09-04T02:37:53.575Z,5.77
2023-09-04T02:38:26.164Z,5.83
2023-09-04T02:38:58.347Z,6.20
2023-09-04T02:39:30.972Z,6.40
2023-09-04T02:40:02.939Z,6.07
2023-09-04T02:40:34.924Z,6.33
2023-09-04T02:41:06.834Z,6.47
2023-09-04T02:41:38.775Z,6.47
2023-09-04T02:42:10.903Z,6.30
2023-09-04T02:42:42.838Z,6.57
2023-09-04T02:43:14.723Z,6.43
2023-09-04T02:43:46.634Z,6.27
2023-09-04T02:44:18.539Z,6.30
2023-09-04T02:44:50.444Z,6.37
2023-09-04T02:45:22.566Z,6.77
2023-09-04T02:45:54.515Z,6.50
2023-09-04T02:46:26.554Z,6.70
2023-09-04T02:46:58.517Z,6.47
2023-09-04T02:47:30.434Z,6.40
2023-09-04T02:48:02.396Z,6.43
2023-09-04T02:48:34.341Z,6.03
2023-09-04T02:49:06.330Z,6.40
2023-09-04T02:49:38.236Z,6.60
2023-09-04T02:50:10.432Z,6.43
2023-09-04T02:50:42.338Z,6.40
2023-09-04T02:51:14.241Z,6.27
2023-09-04T02:51:46.170Z,6.87
2023-09-04T02:52:18.268Z,7.40
2023-09-04T02:52:50.217Z,6.53
2023-09-04T02:53:22.119Z,5.77
2023-09-04T02:53:54.034Z,6.17
2023-09-04T02:54:26.418Z,6.00
2023-09-04T02:54:58.905Z,6.27
2023-09-04T02:55:30.844Z,6.20
2023-09-04T02:56:03.147Z,6.20
2023-09-04T02:56:35.065Z,6.27
2023-09-04T02:57:06.955Z,6.80
2023-09-04T02:57:38.898Z,6.73
2023-09-04T02:58:11.123Z,6.53
2023-09-04T02:58:43.256Z,6.87
2023-09-04T02:59:15.247Z,6.20
2023-09-04T02:59:47.172Z,6.43
2023-09-04T03:00:19.074Z,6.30
2023-09-04T03:00:51.362Z,6.20
2023-09-04T03:01:23.351Z,6.37
2023-09-04T03:01:55.282Z,6.33
2023-09-04T03:02:27.235Z,6.57
2023-09-04T03:02:59.293Z,6.63
2023-09-04T03:03:31.260Z,6.47
2023-09-04T03:04:03.335Z,6.53
2023-09-04T03:04:35.254Z,6.00
2023-09-04T03:05:07.498Z,5.67
2023-09-04T03:05:39.411Z,6.63
2023-09-04T03:06:12.283Z,6.43
2023-09-04T03:06:44.209Z,7.07
2023-09-04T03:07:16.118Z,6.63
2023-09-04T03:07:48.468Z,6.50
2023-09-04T03:08:20.449Z,6.67
2023-09-04T03:08:52.454Z,6.67
2023-09-04T03:09:25.424Z,6.07
2023-09-04T03:09:59.234Z,5.87
2023-09-04T03:10:34.189Z,5.90
2023-09-04T03:11:11.063Z,6.03
2023-09-04T03:11:43.092Z,6.23
2023-09-04T03:12:15.012Z,6.00
2023-09-04T03:12:46.937Z,6.67
2023-09-04T03:13:18.893Z,6.23
2023-09-04T03:13:50.804Z,6.17
2023-09-04T03:14:22.711Z,6.30
2023-09-04T03:15:04.297Z,6.53
2023-09-04T03:15:36.301Z,6.60
2023-09-04T03:16:08.490Z,6.80
2023-09-04T03:16:40.496Z,6.47
2023-09-04T03:17:12.474Z,6.10
2023-09-04T03:17:44.471Z,6.27
2023-09-04T03:18:16.417Z,6.40
2023-09-04T03:18:48.335Z,6.63
2023-09-04T03:19:20.247Z,6.23
2023-09-04T03:19:53.435Z,6.27
2023-09-04T03:20:25.346Z,6.77
2023-09-04T03:20:57.374Z,6.30
2023-09-04T03:21:30.103Z,6.13
2023-09-04T03:22:02.071Z,6.13
2023-09-04T03:22:33.993Z,6.03
2023-09-04T03:23:05.919Z,6.50
2023-09-04T03:23:37.826Z,6.30
2023-09-04T03:24:09.767Z,6.03
2023-09-04T03:24:41.730Z,5.93
2023-09-04T03:25:13.689Z,6.33
2023-09-04T03:25:45.666Z,6.53
2023-09-04T03:26:17.584Z,6.07
2023-09-04T03:26:49.483Z,6.00
2023-09-04T03:27:21.413Z,6.70
2023-09-04T03:27:53.330Z,6.87
2023-09-04T03:28:25.750Z,6.77
2023-09-04T03:28:57.960Z,6.60
2023-09-04T03:29:29.877Z,6.33
2023-09-04T03:30:02.238Z,6.13
2023-09-04T03:30:35.421Z,6.57
2023-09-04T03:31:13.765Z,6.57
2023-09-04T03:31:45.676Z,6.07
2023-09-04T03:32:17.615Z,6.00
2023-09-04T03:32:50.635Z,6.77
2023-09-04T03:33:22.768Z,6.93
2023-09-04T03:33:54.939Z,6.57
2023-09-04T03:34:26.906Z,6.67
2023-09-04T03:34:59.281Z,6.67
2023-09-04T03:35:31.211Z,6.30
2023-09-04T03:36:05.596Z,6.40
2023-09-04T03:36:37.520Z,6.40
2023-09-04T03:37:09.427Z,6.90
2023-09-04T03:37:41.476Z,6.13
2023-09-04T03:38:13.545Z,6.10
2023-09-04T03:38:45.620Z,6.47
2023-09-04T03:39:18.072Z,6.37
2023-09-04T03:39:50.007Z,6.37
2023-09-04T03:40:26.363Z,6.10
2023-09-04T03:40:58.310Z,6.10
2023-09-04T03:41:32.077Z,6.33
2023-09-04T03:42:05.129Z,6.07
2023-09-04T03:42:37.063Z,6.13
2023-09-04T03:43:09.043Z,6.60
2023-09-04T03:43:41.043Z,6.43
2023-09-04T03:44:13.056Z,6.37
2023-09-04T03:44:44.985Z,6.27
2023-09-04T03:45:17.203Z,6.70
2023-09-04T03:45:49.172Z,6.03
2023-09-04T03:46:21.118Z,5.77
2023-09-04T03:46:53.094Z,6.20
2023-09-04T03:47:25.004Z,6.27
2023-09-04T03:47:57.513Z,6.53
2023-09-04T03:48:29.703Z,6.27
2023-09-04T03:49:01.923Z,7.00
2023-09-04T03:49:33.883Z,6.70
2023-09-04T03:50:06.137Z,6.07
2023-09-04T03:50:38.896Z,6.70
2023-09-04T03:51:11.242Z,6.73
2023-09-04T03:51:43.151Z,6.63
2023-09-04T03:52:15.124Z,6.80
2023-09-04T03:52:47.290Z,6.80
2023-09-04T03:53:19.202Z,6.23
2023-09-04T03:53:51.119Z,6.43
2023-09-04T03:54:24.120Z,6.43
2023-09-04T03:54:56.278Z,7.03
2023-09-04T03:55:28.211Z,6.87
2023-09-04T03:56:04.829Z,7.17
2023-09-04T03:56:36.859Z,6.73
2023-09-04T03:57:08.780Z,7.47
2023-09-04T03:57:49.041Z,7.40
2023-09-04T03:58:21.009Z,6.73
2023-09-04T03:58:52.996Z,6.87
2023-09-04T03:59:24.926Z,6.73
2023-09-04T03:59:59.982Z,6.83
2023-09-04T04:00:32.438Z,6.87
2023-09-04T04:01:05.530Z,7.10
2023-09-04T04:01:37.541Z,6.87
2023-09-04T04:02:09.438Z,5.90
2023-09-04T04:02:42.167Z,6.60
2023-09-04T04:03:15.860Z,7.07
2023-09-04T04:03:54.273Z,7.20
2023-09-04T04:04:26.245Z,7.17
2023-09-04T04:04:58.151Z,6.87
2023-09-04T04:05:30.102Z,6.60
2023-09-04T04:06:11.549Z,7.37
2023-09-04T04:06:43.480Z,7.20
2023-09-04T04:07:15.493Z,7.27
2023-09-04T04:07:49.171Z,7.57
2023-09-04T04:08:21.201Z,7.23
2023-09-04T04:08:55.734Z,6.67
2023-09-04T04:09:28.241Z,6.53
2023-09-04T04:10:00.235Z,6.47
2023-09-04T04:10:32.153Z,7.03
2023-09-04T04:11:05.437Z,6.77
2023-09-04T04:11:37.349Z,6.90
2023-09-04T04:12:09.651Z,6.83
2023-09-04T04:12:41.706Z,6.77
2023-09-04T04:13:13.792Z,6.90
2023-09-04T04:13:45.775Z,6.93
2023-09-04T04:14:17.816Z,6.20
2023-09-04T04:14:49.738Z,7.07
2023-09-04T04:15:21.869Z,6.77
2023-09-04T04:15:58.599Z,6.80
2023-09-04T04:16:36.445Z,6.40
2023-09-04T04:17:09.553Z,6.87
2023-09-04T04:17:41.621Z,7.20
2023-09-04T04:18:13.592Z,6.53
2023-09-04T04:18:45.524Z,6.63
2023-09-04T04:19:17.494Z,7.03
2023-09-04T04:19:50.343Z,7.47
2023-09-04T04:20:22.254Z,7.03
2023-09-04T04:20:57.890Z,6.73
2023-09-04T04:21:29.836Z,6.63
2023-09-04T04:22:01.744Z,6.20
2023-09-04T04:22:33.766Z,6.57
2023-09-04T04:23:05.680Z,7.00
2023-09-04T04:23:37.612Z,6.77
2023-09-04T04:24:09.574Z,6.63
2023-09-04T04:24:41.474Z,6.33
2023-09-04T04:25:13.407Z,6.50
2023-09-04T04:25:45.348Z,6.93
2023-09-04T04:26:17.269Z,6.97
2023-09-04T04:26:49.560Z,6.87
2023-09-04T04:27:22.681Z,6.97
2023-09-04T04:27:54.602Z,7.13
2023-09-04T04:28:27.094Z,6.93
2023-09-04T04:28:59.119Z,6.90
2023-09-04T04:29:31.076Z,6.90
2023-09-04T04:30:03.812Z,7.30
2023-09-04T04:30:36.694Z,7.03
2023-09-04T04:31:08.614Z,7.80
2023-09-04T04:31:40.617Z,7.47
2023-09-04T04:32:12.598Z,7.23
2023-09-04T04:32:44.567Z,7.10
2023-09-04T04:33:16.504Z,7.40
2023-09-04T04:33:48.430Z,6.80
2023-09-04T04:34:20.716Z,6.73
2023-09-04T04:34:52.697Z,6.90
2023-09-04T04:35:24.773Z,6.90
2023-09-04T04:35:56.687Z,6.80
2023-09-04T04:36:28.602Z,7.23
2023-09-04T04:37:01.331Z,7.33
2023-09-04T04:37:33.280Z,6.73
2023-09-04T04:38:05.204Z,6.57
2023-09-04T04:38:37.179Z,6.97
2023-09-04T04:39:09.082Z,6.80
2023-09-04T04:39:41.004Z,6.50
2023-09-04T04:40:13.114Z,6.40
2023-09-04T04:40:45.000Z,6.93
2023-09-04T04:41:19.613Z,6.77
2023-09-04T04:41:51.546Z,6.87
2023-09-04T04:42:26.531Z,7.03
2023-09-04T04:42:58.512Z,6.70
2023-09-04T04:43:30.431Z,6.50
2023-09-04T04:44:02.348Z,7.10
2023-09-04T04:44:34.254Z,6.47
2023-09-04T04:45:06.884Z,6.40
2023-09-04T04:45:38.825Z,7.17
2023-09-04T04:46:13.876Z,6.53
2023-09-04T04:46:48.922Z,6.23
2023-09-04T04:47:20.845Z,6.67
2023-09-04T04:47:52.924Z,6.30
2023-09-04T04:48:25.064Z,6.57
2023-09-04T04:48:57.361Z,6.80
2023-09-04T04:49:29.274Z,6.87
2023-09-04T04:50:01.194Z,7.07
2023-09-04T04:50:33.175Z,6.50
2023-09-04T04:51:05.129Z,7.20
2023-09-04T04:51:37.105Z,7.20
2023-09-04T04:52:09.059Z,7.20
2023-09-04T04:52:41.052Z,7.17
2023-09-04T04:53:12.942Z,7.17
2023-09-04T04:53:44.853Z,6.53
2023-09-04T04:54:17.348Z,6.83
2023-09-04T04:54:49.260Z,6.80
2023-09-04T04:55:21.168Z,7.30
2023-09-04T04:55:53.087Z,6.90
2023-09-04T04:56:25.035Z,7.07
2023-09-04T04:56:57.056Z,6.37
2023-09-04T04:57:29.158Z,6.60
2023-09-04T04:58:01.124Z,6.60
2023-09-04T04:58:33.015Z,6.63
2023-09-04T04:59:05.042Z,6.70
2023-09-04T04:59:38.122Z,6.23
2023-09-04T05:00:10.402Z,6.77
2023-09-04T05:00:42.307Z,6.57
2023-09-04T05:01:14.269Z,6.20
2023-09-04T05:01:46.814Z,7.30
2023-09-04T05:02:18.859Z,6.13
2023-09-04T05:02:51.008Z,6.50
2023-09-04T05:03:23.135Z,6.67
2023-09-04T05:03:55.062Z,6.63
2023-09-04T05:04:27.036Z,6.87
2023-09-04T05:04:58.985Z,6.77
2023-09-04T05:05:30.900Z,6.87
2023-09-04T05:06:03.292Z,7.13
2023-09-04T05:06:35.228Z,6.83
2023-09-04T05:07:07.140Z,6.43
2023-09-04T05:07:39.132Z,6.40
2023-09-04T05:08:11.115Z,6.47
2023-09-04T05:08:43.023Z,6.60
2023-09-04T05:09:14.918Z,6.17
2023-09-04T05:09:46.833Z,6.27
2023-09-04T05:10:18.785Z,6.67
2023-09-04T05:11:03.910Z,6.73
2023-09-04T05:11:36.780Z,6.40
2023-09-04T05:12:08.837Z,6.27
2023-09-04T05:12:40.772Z,6.27
2023-09-04T05:13:12.795Z,7.00
2023-09-04T05:13:44.713Z,6.57
2023-09-04T05:14:16.624Z,6.07
2023-09-04T05:14:48.551Z,5.93
2023-09-04T05:15:20.493Z,6.40
2023-09-04T05:15:52.459Z,5.90
2023-09-04T05:16:24.390Z,5.80
2023-09-04T05:16:56.745Z,5.50
2023-09-04T05:17:28.737Z,6.30
2023-09-04T05:18:00.832Z,6.03
2023-09-04T05:18:34.058Z,5.80
2023-09-04T05:19:06.520Z,5.97
2023-09-04T05:19:38.441Z,6.37
2023-09-04T05:20:11.167Z,6.53
2023-09-04T05:20:43.094Z,6.83
2023-09-04T05:21:14.990Z,6.47
2023-09-04T05:21:56.240Z,6.07
2023-09-04T05:22:29.418Z,5.80
2023-09-04T05:23:02.841Z,5.90
2023-09-04T05:23:35.610Z,6.13
2023-09-04T05:24:08.118Z,6.27
2023-09-04T05:24:40.039Z,6.47
2023-09-04T05:25:12.786Z,5.93
2023-09-04T05:25:54.918Z,5.63
2023-09-04T05:26:26.873Z,5.43
2023-09-04T05:26:58.806Z,5.87
2023-09-04T05:27:30.754Z,6.20
2023-09-04T05:28:02.732Z,6.40
2023-09-04T05:28:34.664Z,6.27
2023-09-04T05:29:06.590Z,6.23
2023-09-04T05:29:38.709Z,5.87
2023-09-04T05:30:10.806Z,6.20
2023-09-04T05:30:42.732Z,5.90
2023-09-04T05:31:14.672Z,5.93
2023-09-04T05:31:46.616Z,6.23
2023-09-04T05:32:18.544Z,6.80
2023-09-04T05:32:54.295Z,6.23
2023-09-04T05:33:26.913Z,6.37
2023-09-04T05:33:58.832Z,6.70
2023-09-04T05:34:30.753Z,7.27
2023-09-04T05:35:02.951Z,6.30
2023-09-04T05:35:34.889Z,5.90
2023-09-04T05:36:09.323Z,6.37
2023-09-04T05:36:41.284Z,6.90
2023-09-04T05:37:13.564Z,6.47
2023-09-04T05:37:45.711Z,6.07
2023-09-04T05:38:17.656Z,5.70
2023-09-04T05:38:49.976Z,6.07
2023-09-04T05:39:21.923Z,6.00
2023-09-04T05:39:55.189Z,6.20
2023-09-04T05:40:27.178Z,6.13
2023-09-04T05:41:01.862Z,6.13
2023-09-04T05:41:33.772Z,6.03
2023-09-04T05:42:06.178Z,6.33
2023-09-04T05:42:38.104Z,6.17
2023-09-04T05:43:10.084Z,6.47
2023-09-04T05:43:42.063Z,6.27
2023-09-04T05:44:13.992Z,6.37
2023-09-04T05:44:45.901Z,6.80
2023-09-04T05:45:17.835Z,6.97
2023-09-04T05:45:51.113Z,6.77
2023-09-04T05:46:23.051Z,7.23
2023-09-04T05:46:55.082Z,6.93
2023-09-04T05:47:27.118Z,6.40
2023-09-04T05:47:59.397Z,6.33
2023-09-04T05:48:32.647Z,6.17
2023-09-04T05:49:04.726Z,6.17
2023-09-04T05:49:36.638Z,6.47
2023-09-04T05:50:08.907Z,7.13
2023-09-04T05:50:40.814Z,6.40
2023-09-04T05:51:13.033Z,7.03
2023-09-04T05:51:44.932Z,6.90
2023-09-04T05:52:17.968Z,5.93
2023-09-04T05:52:49.877Z,5.53
2023-09-04T05:53:21.826Z,5.77
2023-09-04T05:53:54.027Z,5.50
2023-09-04T05:54:25.964Z,5.70
2023-09-04T05:54:57.941Z,5.87
2023-09-04T05:55:29.932Z,5.53
2023-09-04T05:56:11.012Z,6.13
2023-09-04T05:56:42.975Z,6.47
2023-09-04T05:57:14.880Z,6.17
2023-09-04T05:57:46.789Z,6.13
2023-09-04T05:58:19.009Z,6.23
2023-09-04T05:58:52.348Z,5.87
2023-09-04T05:59:24.699Z,6.50
2023-09-04T05:59:56.721Z,6.43
2023-09-04T06:00:28.994Z,6.53
2023-09-04T06:01:01.228Z,6.10
2023-09-04T06:01:33.237Z,5.80
2023-09-04T06:02:05.275Z,6.03
2023-09-04T06:02:37.214Z,6.33
2023-09-04T06:03:10.791Z,6.30
2023-09-04T06:03:44.039Z,6.23
2023-09-04T06:04:15.976Z,5.83
2023-09-04T06:04:48.065Z,5.90
2023-09-04T06:05:19.974Z,6.23
2023-09-04T06:05:51.881Z,5.77
2023-09-04T06:06:23.813Z,5.77
2023-09-04T06:06:55.734Z,5.97
2023-09-04T06:07:27.668Z,6.13
2023-09-04T06:07:59.583Z,5.80
2023-09-04T06:08:32.102Z,5.90
2023-09-04T06:09:04.279Z,5.63
2023-09-04T06:09:36.197Z,5.87
2023-09-04T06:10:08.336Z,6.07
2023-09-04T06:10:40.282Z,5.63
2023-09-04T06:11:13.432Z,5.37
2023-09-04T06:11:45.539Z,5.93
2023-09-04T06:12:17.483Z,6.30
2023-09-04T06:12:49.499Z,6.00
2023-09-04T06:13:21.470Z,5.73
2023-09-04T06:13:53.380Z,5.33
2023-09-04T06:14:25.692Z,5.43
2023-09-04T06:14:57.611Z,5.83
2023-09-04T06:15:29.529Z,6.00
2023-09-04T06:16:02.880Z,5.97
2023-09-04T06:16:35.374Z,6.27
2023-09-04T06:17:07.473Z,6.53
2023-09-04T06:17:39.405Z,6.00
2023-09-04T06:18:11.318Z,5.80
2023-09-04T06:18:43.297Z,6.80
2023-09-04T06:19:15.214Z,6.77
2023-09-04T06:19:47.120Z,6.40
2023-09-04T06:20:19.031Z,5.63
2023-09-04T06:20:51.826Z,4.83
2023-09-04T06:21:23.740Z,5.17
2023-09-04T06:21:56.157Z,5.53
2023-09-04T06:22:28.104Z,5.40
2023-09-04T06:23:00.058Z,5.73
2023-09-04T06:23:33.484Z,6.43
2023-09-04T06:24:05.703Z,6.00
2023-09-04T06:24:37.594Z,6.13
2023-09-04T06:25:09.611Z,7.43
2023-09-04T06:25:44.154Z,6.17
2023-09-04T06:26:16.082Z,5.87
2023-09-04T06:26:47.983Z,6.13
2023-09-04T06:27:19.891Z,5.57
2023-09-04T06:27:51.982Z,5.70
2023-09-04T06:28:25.017Z,5.57
2023-09-04T06:28:57.230Z,5.20
2023-09-04T06:29:30.331Z,5.40
2023-09-04T06:30:02.240Z,4.57
2023-09-04T06:30:34.211Z,4.37
2023-09-04T06:31:06.292Z,5.10
2023-09-04T06:31:38.408Z,5.07
2023-09-04T06:32:12.139Z,5.10
2023-09-04T06:32:44.104Z,5.97
2023-09-04T06:33:16.056Z,6.17
2023-09-04T06:33:48.906Z,5.80
2023-09-04T06:34:20.825Z,5.70
2023-09-04T06:34:52.741Z,5.83
2023-09-04T06:35:24.713Z,6.07
2023-09-04T06:35:56.642Z,6.40
2023-09-04T06:36:28.636Z,5.57
2023-09-04T06:37:00.579Z,5.47
2023-09-04T06:37:32.491Z,5.07
2023-09-04T06:38:04.810Z,5.03
2023-09-04T06:38:36.863Z,5.43
2023-09-04T06:39:09.070Z,5.00
2023-09-04T06:39:41.030Z,5.13
2023-09-04T06:40:13.191Z,4.90
2023-09-04T06:40:45.109Z,5.00
2023-09-04T06:41:17.354Z,5.43
2023-09-04T06:41:50.314Z,5.67
2023-09-04T06:42:22.357Z,5.37
2023-09-04T06:42:54.552Z,5.60
2023-09-04T06:43:31.102Z,4.80
2023-09-04T06:44:04.036Z,5.20
2023-09-04T06:44:35.969Z,4.93
2023-09-04T06:45:08.309Z,5.53
2023-09-04T06:45:40.366Z,5.50
2023-09-04T06:46:12.310Z,5.07
2023-09-04T06:46:44.277Z,5.10
2023-09-04T06:47:16.259Z,4.83
2023-09-04T06:47:49.127Z,5.00
2023-09-04T06:48:21.410Z,5.33
2023-09-04T06:48:53.397Z,4.93
2023-09-04T06:49:25.323Z,4.97
2023-09-04T06:49:57.227Z,4.63
2023-09-04T06:50:29.303Z,5.47
2023-09-04T06:51:01.569Z,4.87
2023-09-04T06:51:33.623Z,4.73
2023-09-04T06:52:05.636Z,4.63
2023-09-04T06:52:37.556Z,4.70
2023-09-04T06:53:09.518Z,4.87
2023-09-04T06:53:41.417Z,4.80
2023-09-04T06:54:13.345Z,4.97
2023-09-04T06:54:45.255Z,5.03
2023-09-04T06:55:17.232Z,4.77
2023-09-04T06:55:49.596Z,4.87
2023-09-04T06:56:21.535Z,4.30
2023-09-04T06:56:53.530Z,5.00
2023-09-04T06:57:25.437Z,4.83
2023-09-04T06:57:57.381Z,4.43
2023-09-04T06:58:30.135Z,4.20
2023-09-04T06:59:02.048Z,4.00
2023-09-04T06:59:34.000Z,4.50
2023-09-04T07:00:10.284Z,4.97
2023-09-04T07:00:42.298Z,4.90
2023-09-04T07:01:14.237Z,4.90
2023-09-04T07:01:46.254Z,4.80
2023-09-04T07:02:18.433Z,4.87
2023-09-04T07:02:50.491Z,5.20
2023-09-04T07:03:23.624Z,4.70
2023-09-04T07:03:55.850Z,4.60
2023-09-04T07:04:27.783Z,5.00
2023-09-04T07:04:59.775Z,4.67
2023-09-04T07:05:31.700Z,4.67
2023-09-04T07:06:03.622Z,5.13
2023-09-04T07:06:35.536Z,4.97
2023-09-04T07:07:07.462Z,4.23
2023-09-04T07:07:39.419Z,4.57
2023-09-04T07:08:11.394Z,4.43
2023-09-04T07:08:43.339Z,4.87
2023-09-04T07:09:15.254Z,4.73
2023-09-04T07:09:47.181Z,4.70
2023-09-04T07:10:19.252Z,5.13
2023-09-04T07:10:52.404Z,4.63
2023-09-04T07:11:24.327Z,4.70
2023-09-04T07:11:56.362Z,4.27
2023-09-04T07:12:28.463Z,4.77
2023-09-04T07:13:01.615Z,4.83
2023-09-04T07:13:33.582Z,4.60
2023-09-04T07:14:05.505Z,4.43
2023-09-04T07:14:39.013Z,4.50